createdAt,value
2023-02-03T00:08:02.354Z,10.00
2023-02-03T00:18:02.305Z,10.01
2023-02-03T00:28:02.351Z,10.01
2023-02-03T00:38:02.350Z,10.01
2023-02-03T00:48:02.420Z,10.01
2023-02-03T00:58:02.397Z,10.02
2023-02-03T01:08:02.385Z,10.03
2023-02-03T01:18:02.468Z,10.06
2023-02-03T01:28:02.514Z,10.09
2023-02-03T01:38:02.361Z,10.13
2023-02-03T01:48:04.293Z,10.16
2023-02-03T01:58:04.488Z,10.19
2023-02-03T02:08:04.375Z,10.21
2023-02-03T02:18:04.483Z,10.22
2023-02-03T02:28:04.543Z,10.24
2023-02-03T02:38:08.413Z,10.25
2023-02-03T02:48:08.868Z,10.25
2023-02-03T02:58:09.777Z,10.26
2023-02-03T03:08:09.698Z,10.26
2023-02-03T03:18:09.648Z,10.26
2023-02-03T03:28:09.813Z,10.23
2023-02-03T03:38:10.574Z,10.20
2023-02-03T03:48:10.660Z,10.19
2023-02-03T03:58:10.727Z,10.19
2023-02-03T04:08:10.625Z,10.21
2023-02-03T04:18:10.589Z,10.22
2023-02-03T04:28:10.781Z,10.22
2023-02-03T04:38:10.587Z,10.23
2023-02-03T04:48:10.635Z,10.23
2023-02-03T04:58:10.756Z,10.24
2023-02-03T05:08:10.622Z,10.24
2023-02-03T05:18:10.657Z,10.24
2023-02-03T05:28:10.872Z,10.25
2023-02-03T05:38:10.680Z,10.27
2023-02-03T05:48:10.711Z,10.28
2023-02-03T05:58:10.672Z,10.30
2023-02-03T06:08:10.814Z,10.33
2023-02-03T06:18:10.840Z,10.35
2023-02-03T06:28:10.764Z,10.37
2023-02-03T06:38:10.799Z,10.37
2023-02-03T06:48:10.847Z,10.37
2023-02-03T06:58:10.805Z,10.37
2023-02-03T07:08:10.930Z,10.38
2023-02-03T07:18:11.768Z,10.40
2023-02-03T07:28:14.576Z,10.42
2023-02-03T07:38:14.859Z,10.45
2023-02-03T07:48:14.860Z,10.48
2023-02-03T07:58:38.109Z,10.05
2023-02-03T08:08:38.044Z,10.32
2023-02-03T08:18:38.096Z,10.53
2023-02-03T08:28:38.091Z,10.65
2023-02-03T08:38:38.154Z,10.73
2023-02-03T08:48:38.084Z,10.80
2023-02-03T08:58:38.383Z,10.86
2023-02-03T09:08:38.089Z,10.86
2023-02-03T09:18:38.165Z,10.82
2023-02-03T09:28:38.189Z,10.78
2023-02-03T09:38:38.129Z,10.75
2023-02-03T09:48:38.330Z,10.73
2023-02-03T09:58:38.193Z,10.77
2023-02-03T10:08:38.211Z,10.84
2023-02-03T10:18:38.309Z,10.93
2023-02-03T10:28:38.900Z,11.03
2023-02-03T10:38:39.211Z,11.13
2023-02-03T10:48:39.260Z,11.23
2023-02-03T10:58:39.230Z,11.31
2023-02-03T11:08:39.245Z,11.35
2023-02-03T11:18:39.285Z,11.37
2023-02-03T11:28:39.245Z,11.38
2023-02-03T11:38:41.246Z,11.39
2023-02-03T11:48:41.321Z,11.42
2023-02-03T11:58:41.273Z,11.45
2023-02-03T12:08:41.387Z,11.47
2023-02-03T12:18:41.726Z,11.50
2023-02-03T12:28:42.407Z,11.52
2023-02-03T12:38:42.441Z,11.53
2023-02-03T12:48:42.459Z,11.56
2023-02-03T12:58:42.361Z,11.58
2023-02-03T13:08:42.377Z,11.65
2023-02-03T13:18:42.390Z,11.76
2023-02-03T13:28:42.464Z,11.88
2023-02-03T13:38:42.455Z,12.03
2023-02-03T13:48:43.088Z,12.23
2023-02-03T13:58:43.503Z,12.39
2023-02-03T14:08:43.576Z,12.41
2023-02-03T14:18:43.765Z,12.33
2023-02-03T14:28:43.504Z,12.20
2023-02-03T14:38:43.600Z,12.08
2023-02-03T14:48:43.513Z,11.95
2023-02-03T14:58:43.924Z,11.83
2023-02-03T15:08:44.578Z,11.71
2023-02-03T15:18:44.830Z,11.60
2023-02-03T15:28:44.654Z,11.48
2023-02-03T15:38:44.582Z,11.28
2023-02-03T15:48:44.556Z,11.03
2023-02-03T15:58:44.735Z,10.82
2023-02-03T16:08:45.732Z,10.68
2023-02-03T16:18:45.922Z,10.57
2023-02-03T16:29:04.074Z,10.49
2023-02-03T16:39:22.968Z,10.44
2023-02-03T16:49:40.946Z,10.42
2023-02-03T16:59:40.765Z,10.41
2023-02-03T17:09:40.692Z,10.39
2023-02-03T17:19:40.705Z,10.37
2023-02-03T17:29:41.062Z,10.34
2023-02-03T18:00:17.814Z,10.01
2023-02-03T18:10:17.734Z,9.95
2023-02-03T18:20:17.856Z,9.89
2023-02-03T18:30:19.709Z,9.80
2023-02-03T18:40:19.769Z,9.72
2023-02-03T18:50:19.752Z,9.65
2023-02-03T19:00:20.280Z,9.61
2023-02-03T19:10:20.784Z,9.50
2023-02-03T19:20:20.903Z,9.34
2023-02-03T19:30:21.561Z,9.25
2023-02-03T19:40:21.870Z,9.25
2023-02-03T19:50:21.841Z,9.27
2023-02-03T20:00:21.918Z,9.28
2023-02-03T20:10:21.900Z,9.37
2023-02-03T20:20:21.946Z,9.53
2023-02-03T20:30:22.022Z,9.69
2023-02-03T20:40:22.492Z,9.80
2023-02-03T20:50:28.923Z,9.86
2023-02-03T21:00:24.997Z,9.88
2023-02-03T21:10:25.011Z,9.84
2023-02-03T21:20:25.188Z,9.78
2023-02-03T21:30:26.915Z,9.76
2023-02-03T21:40:27.144Z,9.75
2023-02-03T21:50:27.184Z,9.75
2023-02-03T22:00:27.116Z,9.76
2023-02-03T22:10:27.064Z,9.76
2023-02-03T22:20:27.128Z,9.76
2023-02-03T22:30:27.132Z,9.75
2023-02-03T22:40:27.104Z,9.74
2023-02-03T22:50:34.982Z,9.75
2023-02-03T23:00:29.492Z,9.76
2023-02-03T23:10:30.974Z,9.76
2023-02-03T23:20:31.428Z,9.74
2023-02-03T23:30:33.897Z,9.73
2023-02-03T23:40:34.154Z,9.72
2023-02-03T23:50:34.145Z,9.72
